sensor_id;sensor_type;location;lat;lon;timestamp;temperature;humidity
14401;DHT22;7285;50.894;5.462;2022-10-28T00:01:40;18.20;1.00
14401;DHT22;7285;50.894;5.462;2022-10-28T00:04:07;18.10;1.00
14401;DHT22;7285;50.894;5.462;2022-10-28T00:06:36;18.00;1.00
14401;DHT22;7285;50.894;5.462;2022-10-28T00:09:03;17.90;1.00
14401;DHT22;7285;50.894;5.462;2022-10-28T00:11:32;17.80;1.00
14401;DHT22;7285;50.894;5.462;2022-10-28T00:14:01;17.70;1.00
14401;DHT22;7285;50.894;5.462;2022-10-28T00:16:29;17.60;1.00
14401;DHT22;7285;50.894;5.462;2022-10-28T00:18:57;17.50;1.00
14401;DHT22;7285;50.894;5.462;2022-10-28T00:21:27;17.40;1.00
14401;DHT22;7285;50.894;5.462;2022-10-28T00:23:56;17.30;1.00
14401;DHT22;7285;50.894;5.462;2022-10-28T00:26:25;17.20;1.00
14401;DHT22;7285;50.894;5.462;2022-10-28T00:28:54;17.20;1.00
14401;DHT22;7285;50.894;5.462;2022-10-28T00:31:24;17.10;1.00
14401;DHT22;7285;50.894;5.462;2022-10-28T00:33:51;17.00;1.00
14401;DHT22;7285;50.894;5.462;2022-10-28T00:36:19;17.00;1.00
14401;DHT22;7285;50.894;5.462;2022-10-28T00:38:49;16.90;1.00
14401;DHT22;7285;50.894;5.462;2022-10-28T00:41:19;16.80;1.00
14401;DHT22;7285;50.894;5.462;2022-10-28T00:43:48;16.70;1.00
14401;DHT22;7285;50.894;5.462;2022-10-28T00:46:23;16.60;1.00
14401;DHT22;7285;50.894;5.462;2022-10-28T00:48:54;16.50;1.00
14401;DHT22;7285;50.894;5.462;2022-10-28T00:51:23;16.40;1.00
14401;DHT22;7285;50.894;5.462;2022-10-28T00:53:52;16.20;1.00
14401;DHT22;7285;50.894;5.462;2022-10-28T00:56:22;16.20;47.00
14401;DHT22;7285;50.894;5.462;2022-10-28T00:58:49;16.10;95.90
14401;DHT22;7285;50.894;5.462;2022-10-28T01:01:17;16.10;88.00
14401;DHT22;7285;50.894;5.462;2022-10-28T01:03:44;16.20;58.30
14401;DHT22;7285;50.894;5.462;2022-10-28T01:06:11;16.30;29.60
14401;DHT22;7285;50.894;5.462;2022-10-28T01:08:38;16.30;1.00
14401;DHT22;7285;50.894;5.462;2022-10-28T01:11:18;16.30;13.50
14401;DHT22;7285;50.894;5.462;2022-10-28T01:14:02;16.30;16.20
14401;DHT22;7285;50.894;5.462;2022-10-28T01:16:37;16.30;1.10
14401;DHT22;7285;50.894;5.462;2022-10-28T01:19:34;16.50;26.10
14401;DHT22;7285;50.894;5.462;2022-10-28T01:22:14;16.60;2.00
14401;DHT22;7285;50.894;5.462;2022-10-28T01:25:02;16.70;1.00
14401;DHT22;7285;50.894;5.462;2022-10-28T01:27:54;16.70;1.00
14401;DHT22;7285;50.894;5.462;2022-10-28T01:30:28;16.70;1.00
14401;DHT22;7285;50.894;5.462;2022-10-28T01:33:05;16.70;1.00
14401;DHT22;7285;50.894;5.462;2022-10-28T01:35:41;16.80;12.50
14401;DHT22;7285;50.894;5.462;2022-10-28T01:38:18;16.70;5.40
14401;DHT22;7285;50.894;5.462;2022-10-28T01:40:56;16.80;1.00
14401;DHT22;7285;50.894;5.462;2022-10-28T01:43:26;16.80;1.00
14401;DHT22;7285;50.894;5.462;2022-10-28T01:45:58;16.80;1.00
14401;DHT22;7285;50.894;5.462;2022-10-28T01:48:33;16.80;1.00
14401;DHT22;7285;50.894;5.462;2022-10-28T01:51:03;16.80;1.00
14401;DHT22;7285;50.894;5.462;2022-10-28T01:53:34;16.80;1.00
14401;DHT22;7285;50.894;5.462;2022-10-28T01:56:07;16.80;1.00
14401;DHT22;7285;50.894;5.462;2022-10-28T01:58:36;16.70;1.00
14401;DHT22;7285;50.894;5.462;2022-10-28T02:01:06;16.80;1.00
14401;DHT22;7285;50.894;5.462;2022-10-28T02:03:36;16.90;1.00
14401;DHT22;7285;50.894;5.462;2022-10-28T02:06:04;17.00;1.00
14401;DHT22;7285;50.894;5.462;2022-10-28T02:08:50;17.10;1.00
14401;DHT22;7285;50.894;5.462;2022-10-28T02:14:14;17.00;1.00
14401;DHT22;7285;50.894;5.462;2022-10-28T02:16:47;17.10;1.00
14401;DHT22;7285;50.894;5.462;2022-10-28T02:19:22;17.10;1.00
14401;DHT22;7285;50.894;5.462;2022-10-28T02:22:03;17.10;1.00
14401;DHT22;7285;50.894;5.462;2022-10-28T02:24:39;17.20;1.00
14401;DHT22;7285;50.894;5.462;2022-10-28T02:27:15;17.20;1.00
14401;DHT22;7285;50.894;5.462;2022-10-28T02:29:47;17.10;1.00
14401;DHT22;7285;50.894;5.462;2022-10-28T02:32:18;17.00;1.00
14401;DHT22;7285;50.894;5.462;2022-10-28T02:34:52;17.00;1.00
14401;DHT22;7285;50.894;5.462;2022-10-28T02:37:21;17.10;1.00
14401;DHT22;7285;50.894;5.462;2022-10-28T02:39:52;17.20;1.00
14401;DHT22;7285;50.894;5.462;2022-10-28T02:42:24;17.20;1.00
14401;DHT22;7285;50.894;5.462;2022-10-28T02:44:55;17.20;1.00
14401;DHT22;7285;50.894;5.462;2022-10-28T02:47:27;17.20;1.00
14401;DHT22;7285;50.894;5.462;2022-10-28T02:50:00;17.30;1.00
14401;DHT22;7285;50.894;5.462;2022-10-28T02:52:30;17.40;1.00
14401;DHT22;7285;50.894;5.462;2022-10-28T02:54:59;17.60;1.00
14401;DHT22;7285;50.894;5.462;2022-10-28T02:57:30;17.60;1.00
14401;DHT22;7285;50.894;5.462;2022-10-28T02:59:59;17.60;1.00
14401;DHT22;7285;50.894;5.462;2022-10-28T03:02:27;17.60;1.00
14401;DHT22;7285;50.894;5.462;2022-10-28T03:04:54;17.50;1.00
14401;DHT22;7285;50.894;5.462;2022-10-28T03:07:22;17.50;1.00
14401;DHT22;7285;50.894;5.462;2022-10-28T03:09:49;17.50;1.00
14401;DHT22;7285;50.894;5.462;2022-10-28T03:12:16;17.50;1.00
14401;DHT22;7285;50.894;5.462;2022-10-28T03:14:43;17.50;1.00
14401;DHT22;7285;50.894;5.462;2022-10-28T03:17:10;17.60;1.00
14401;DHT22;7285;50.894;5.462;2022-10-28T03:19:37;17.70;1.00
14401;DHT22;7285;50.894;5.462;2022-10-28T03:22:04;17.80;1.00
14401;DHT22;7285;50.894;5.462;2022-10-28T03:24:32;17.70;1.00
14401;DHT22;7285;50.894;5.462;2022-10-28T03:26:59;17.70;1.00
14401;DHT22;7285;50.894;5.462;2022-10-28T03:29:26;17.70;1.00
14401;DHT22;7285;50.894;5.462;2022-10-28T03:31:53;17.70;1.00
14401;DHT22;7285;50.894;5.462;2022-10-28T03:34:20;17.70;1.00
14401;DHT22;7285;50.894;5.462;2022-10-28T03:36:46;17.90;1.00
14401;DHT22;7285;50.894;5.462;2022-10-28T03:39:13;17.90;1.00
14401;DHT22;7285;50.894;5.462;2022-10-28T03:41:42;17.80;1.00
14401;DHT22;7285;50.894;5.462;2022-10-28T03:44:08;17.80;1.00
14401;DHT22;7285;50.894;5.462;2022-10-28T03:46:35;17.70;1.00
14401;DHT22;7285;50.894;5.462;2022-10-28T03:49:02;17.70;1.00
14401;DHT22;7285;50.894;5.462;2022-10-28T03:51:29;17.70;1.00
14401;DHT22;7285;50.894;5.462;2022-10-28T03:53:56;17.70;1.00
14401;DHT22;7285;50.894;5.462;2022-10-28T03:56:23;17.70;1.00
14401;DHT22;7285;50.894;5.462;2022-10-28T03:58:51;17.70;1.00
14401;DHT22;7285;50.894;5.462;2022-10-28T04:01:18;17.70;1.00
14401;DHT22;7285;50.894;5.462;2022-10-28T04:03:45;17.70;1.00
14401;DHT22;7285;50.894;5.462;2022-10-28T04:06:12;17.80;1.00
14401;DHT22;7285;50.894;5.462;2022-10-28T04:08:39;17.70;1.00
14401;DHT22;7285;50.894;5.462;2022-10-28T04:11:05;17.70;1.00
14401;DHT22;7285;50.894;5.462;2022-10-28T04:13:33;17.70;1.00
14401;DHT22;7285;50.894;5.462;2022-10-28T04:16:01;17.70;1.00
14401;DHT22;7285;50.894;5.462;2022-10-28T04:18:28;17.60;1.00
14401;DHT22;7285;50.894;5.462;2022-10-28T04:20:55;17.70;1.00
14401;DHT22;7285;50.894;5.462;2022-10-28T04:23:22;17.70;1.00
14401;DHT22;7285;50.894;5.462;2022-10-28T04:25:51;17.70;1.00
14401;DHT22;7285;50.894;5.462;2022-10-28T04:28:18;17.70;1.00
14401;DHT22;7285;50.894;5.462;2022-10-28T04:30:46;17.70;1.00
14401;DHT22;7285;50.894;5.462;2022-10-28T04:33:15;17.70;1.00
14401;DHT22;7285;50.894;5.462;2022-10-28T04:35:42;17.70;1.00
14401;DHT22;7285;50.894;5.462;2022-10-28T04:38:08;17.70;1.00
14401;DHT22;7285;50.894;5.462;2022-10-28T04:40:35;17.80;1.00
14401;DHT22;7285;50.894;5.462;2022-10-28T04:43:02;17.70;1.00
14401;DHT22;7285;50.894;5.462;2022-10-28T04:45:30;17.60;1.00
14401;DHT22;7285;50.894;5.462;2022-10-28T04:47:57;17.60;1.00
14401;DHT22;7285;50.894;5.462;2022-10-28T04:50:26;17.60;1.00
14401;DHT22;7285;50.894;5.462;2022-10-28T04:52:53;17.60;1.00
14401;DHT22;7285;50.894;5.462;2022-10-28T04:55:20;17.60;1.00
14401;DHT22;7285;50.894;5.462;2022-10-28T04:57:52;17.60;1.00
14401;DHT22;7285;50.894;5.462;2022-10-28T05:00:19;17.70;1.00
14401;DHT22;7285;50.894;5.462;2022-10-28T05:02:46;17.70;1.00
14401;DHT22;7285;50.894;5.462;2022-10-28T05:05:13;17.70;1.00
14401;DHT22;7285;50.894;5.462;2022-10-28T05:07:41;17.60;1.00
14401;DHT22;7285;50.894;5.462;2022-10-28T05:10:09;17.60;1.00
14401;DHT22;7285;50.894;5.462;2022-10-28T05:12:37;17.70;1.00
14401;DHT22;7285;50.894;5.462;2022-10-28T05:15:08;17.70;1.00
14401;DHT22;7285;50.894;5.462;2022-10-28T05:17:35;17.70;1.00
14401;DHT22;7285;50.894;5.462;2022-10-28T05:20:04;17.60;1.00
14401;DHT22;7285;50.894;5.462;2022-10-28T05:22:31;17.70;1.00
14401;DHT22;7285;50.894;5.462;2022-10-28T05:24:59;17.70;1.00
14401;DHT22;7285;50.894;5.462;2022-10-28T05:27:26;17.60;1.00
14401;DHT22;7285;50.894;5.462;2022-10-28T05:29:54;17.50;1.00
14401;DHT22;7285;50.894;5.462;2022-10-28T05:32:21;17.50;1.00
14401;DHT22;7285;50.894;5.462;2022-10-28T05:34:48;17.30;1.00
14401;DHT22;7285;50.894;5.462;2022-10-28T05:37:15;17.20;1.00
14401;DHT22;7285;50.894;5.462;2022-10-28T05:39:41;17.10;1.00
14401;DHT22;7285;50.894;5.462;2022-10-28T05:42:10;17.00;1.00
14401;DHT22;7285;50.894;5.462;2022-10-28T05:44:36;17.00;1.00
14401;DHT22;7285;50.894;5.462;2022-10-28T05:47:03;17.00;1.00
14401;DHT22;7285;50.894;5.462;2022-10-28T05:49:30;16.90;1.00
14401;DHT22;7285;50.894;5.462;2022-10-28T05:51:57;17.00;1.00
14401;DHT22;7285;50.894;5.462;2022-10-28T05:54:24;17.10;29.80
14401;DHT22;7285;50.894;5.462;2022-10-28T05:56:51;17.10;1.00
14401;DHT22;7285;50.894;5.462;2022-10-28T05:59:19;17.10;1.00
14401;DHT22;7285;50.894;5.462;2022-10-28T06:01:46;17.10;11.00
14401;DHT22;7285;50.894;5.462;2022-10-28T06:04:13;17.10;1.00
14401;DHT22;7285;50.894;5.462;2022-10-28T06:06:40;17.20;1.00
14401;DHT22;7285;50.894;5.462;2022-10-28T06:09:07;17.20;1.00
14401;DHT22;7285;50.894;5.462;2022-10-28T06:11:34;17.30;1.00
14401;DHT22;7285;50.894;5.462;2022-10-28T06:14:01;17.40;1.00
14401;DHT22;7285;50.894;5.462;2022-10-28T06:16:29;17.40;1.00
14401;DHT22;7285;50.894;5.462;2022-10-28T06:18:59;17.40;1.00
14401;DHT22;7285;50.894;5.462;2022-10-28T06:21:25;17.30;1.00
14401;DHT22;7285;50.894;5.462;2022-10-28T06:23:52;17.30;1.00
14401;DHT22;7285;50.894;5.462;2022-10-28T06:26:19;17.40;1.00
14401;DHT22;7285;50.894;5.462;2022-10-28T06:28:47;17.30;1.00
14401;DHT22;7285;50.894;5.462;2022-10-28T06:31:14;17.30;1.00
14401;DHT22;7285;50.894;5.462;2022-10-28T06:33:42;17.30;1.00
14401;DHT22;7285;50.894;5.462;2022-10-28T06:36:09;17.20;1.00
14401;DHT22;7285;50.894;5.462;2022-10-28T06:38:36;17.10;1.00
14401;DHT22;7285;50.894;5.462;2022-10-28T06:41:03;17.10;1.00
14401;DHT22;7285;50.894;5.462;2022-10-28T06:43:30;17.00;3.90
14401;DHT22;7285;50.894;5.462;2022-10-28T06:46:00;16.90;39.90
14401;DHT22;7285;50.894;5.462;2022-10-28T06:48:27;16.90;41.40
14401;DHT22;7285;50.894;5.462;2022-10-28T06:50:56;16.90;56.50
14401;DHT22;7285;50.894;5.462;2022-10-28T06:53:23;16.80;86.80
14401;DHT22;7285;50.894;5.462;2022-10-28T06:55:54;16.80;99.90
14401;DHT22;7285;50.894;5.462;2022-10-28T06:58:21;16.80;99.90
14401;DHT22;7285;50.894;5.462;2022-10-28T07:00:48;16.80;99.90
14401;DHT22;7285;50.894;5.462;2022-10-28T07:03:16;16.80;99.90
14401;DHT22;7285;50.894;5.462;2022-10-28T07:05:43;16.80;99.90
14401;DHT22;7285;50.894;5.462;2022-10-28T07:08:12;16.80;99.90
14401;DHT22;7285;50.894;5.462;2022-10-28T07:10:40;16.80;99.90
14401;DHT22;7285;50.894;5.462;2022-10-28T07:13:07;16.90;99.90
14401;DHT22;7285;50.894;5.462;2022-10-28T07:15:33;16.90;99.90
14401;DHT22;7285;50.894;5.462;2022-10-28T07:18:00;16.90;99.90
14401;DHT22;7285;50.894;5.462;2022-10-28T07:20:27;16.90;99.90
14401;DHT22;7285;50.894;5.462;2022-10-28T07:22:57;16.90;99.90
14401;DHT22;7285;50.894;5.462;2022-10-28T07:25:25;16.80;99.90
14401;DHT22;7285;50.894;5.462;2022-10-28T07:27:52;16.80;1.00
14401;DHT22;7285;50.894;5.462;2022-10-28T07:30:19;16.80;1.00
14401;DHT22;7285;50.894;5.462;2022-10-28T07:32:46;16.80;1.00
14401;DHT22;7285;50.894;5.462;2022-10-28T07:35:13;16.70;1.00
14401;DHT22;7285;50.894;5.462;2022-10-28T07:37:40;16.70;1.00
14401;DHT22;7285;50.894;5.462;2022-10-28T07:40:08;16.70;1.00
14401;DHT22;7285;50.894;5.462;2022-10-28T07:42:36;16.70;1.00
14401;DHT22;7285;50.894;5.462;2022-10-28T07:45:03;16.80;1.00
14401;DHT22;7285;50.894;5.462;2022-10-28T07:47:30;16.90;1.00
14401;DHT22;7285;50.894;5.462;2022-10-28T07:49:57;17.00;1.00
14401;DHT22;7285;50.894;5.462;2022-10-28T07:52:24;17.00;1.00
14401;DHT22;7285;50.894;5.462;2022-10-28T07:54:51;17.10;1.00
14401;DHT22;7285;50.894;5.462;2022-10-28T07:57:18;17.10;1.00
14401;DHT22;7285;50.894;5.462;2022-10-28T07:59:46;17.20;1.00
14401;DHT22;7285;50.894;5.462;2022-10-28T08:02:16;17.30;1.00
14401;DHT22;7285;50.894;5.462;2022-10-28T08:04:43;17.50;1.00
14401;DHT22;7285;50.894;5.462;2022-10-28T08:07:10;17.60;1.00
14401;DHT22;7285;50.894;5.462;2022-10-28T08:09:37;17.80;1.00
14401;DHT22;7285;50.894;5.462;2022-10-28T08:12:04;17.90;1.00
14401;DHT22;7285;50.894;5.462;2022-10-28T08:14:31;18.10;1.00
14401;DHT22;7285;50.894;5.462;2022-10-28T08:17:00;18.30;1.00
14401;DHT22;7285;50.894;5.462;2022-10-28T08:19:27;18.50;99.90
14401;DHT22;7285;50.894;5.462;2022-10-28T08:21:53;18.70;99.90
14401;DHT22;7285;50.894;5.462;2022-10-28T08:24:20;18.90;99.90
14401;DHT22;7285;50.894;5.462;2022-10-28T08:26:47;19.00;99.90
14401;DHT22;7285;50.894;5.462;2022-10-28T08:29:15;19.10;99.90
14401;DHT22;7285;50.894;5.462;2022-10-28T08:31:42;19.20;99.90
14401;DHT22;7285;50.894;5.462;2022-10-28T08:34:10;19.30;99.90
14401;DHT22;7285;50.894;5.462;2022-10-28T08:36:37;19.40;99.90
14401;DHT22;7285;50.894;5.462;2022-10-28T08:39:04;19.50;99.90
14401;DHT22;7285;50.894;5.462;2022-10-28T08:41:35;19.70;99.90
14401;DHT22;7285;50.894;5.462;2022-10-28T08:47:09;20.00;99.90
14401;DHT22;7285;50.894;5.462;2022-10-28T08:49:41;20.00;99.90
14401;DHT22;7285;50.894;5.462;2022-10-28T08:52:16;20.10;99.90
14401;DHT22;7285;50.894;5.462;2022-10-28T08:54:50;20.20;99.90
14401;DHT22;7285;50.894;5.462;2022-10-28T08:57:20;20.30;99.90
14401;DHT22;7285;50.894;5.462;2022-10-28T08:59:50;20.30;60.60
14401;DHT22;7285;50.894;5.462;2022-10-28T09:02:20;20.30;99.90
14401;DHT22;7285;50.894;5.462;2022-10-28T09:04:52;20.40;99.90
14401;DHT22;7285;50.894;5.462;2022-10-28T09:07:23;20.40;99.90
14401;DHT22;7285;50.894;5.462;2022-10-28T09:09:51;20.50;99.90
14401;DHT22;7285;50.894;5.462;2022-10-28T09:12:28;20.40;94.70
14401;DHT22;7285;50.894;5.462;2022-10-28T09:15:17;20.50;1.00
14401;DHT22;7285;50.894;5.462;2022-10-28T09:17:52;20.50;1.00
14401;DHT22;7285;50.894;5.462;2022-10-28T09:20:27;20.50;99.90
14401;DHT22;7285;50.894;5.462;2022-10-28T09:22:56;20.60;64.50
14401;DHT22;7285;50.894;5.462;2022-10-28T09:25:29;20.60;86.30
14401;DHT22;7285;50.894;5.462;2022-10-28T09:28:23;20.60;1.00
14401;DHT22;7285;50.894;5.462;2022-10-28T09:30:59;20.70;1.00
14401;DHT22;7285;50.894;5.462;2022-10-28T09:33:53;20.70;1.00
14401;DHT22;7285;50.894;5.462;2022-10-28T09:36:27;20.70;11.30
14401;DHT22;7285;50.894;5.462;2022-10-28T09:38:59;20.70;1.00
14401;DHT22;7285;50.894;5.462;2022-10-28T09:41:30;20.80;1.00
14401;DHT22;7285;50.894;5.462;2022-10-28T09:44:04;20.80;1.00
14401;DHT22;7285;50.894;5.462;2022-10-28T09:46:33;20.80;1.00
14401;DHT22;7285;50.894;5.462;2022-10-28T09:49:04;20.80;1.00
14401;DHT22;7285;50.894;5.462;2022-10-28T09:51:40;20.90;1.00
14401;DHT22;7285;50.894;5.462;2022-10-28T09:54:10;21.10;1.00
14401;DHT22;7285;50.894;5.462;2022-10-28T09:56:38;21.30;1.00
14401;DHT22;7285;50.894;5.462;2022-10-28T09:59:06;21.60;1.00
14401;DHT22;7285;50.894;5.462;2022-10-28T10:01:36;21.80;1.00
14401;DHT22;7285;50.894;5.462;2022-10-28T10:04:14;22.10;1.00
14401;DHT22;7285;50.894;5.462;2022-10-28T10:06:44;22.30;1.00
14401;DHT22;7285;50.894;5.462;2022-10-28T10:09:17;22.50;1.00
14401;DHT22;7285;50.894;5.462;2022-10-28T10:11:46;22.60;1.00
14401;DHT22;7285;50.894;5.462;2022-10-28T10:14:16;22.80;1.00
14401;DHT22;7285;50.894;5.462;2022-10-28T10:16:46;22.90;1.00
14401;DHT22;7285;50.894;5.462;2022-10-28T10:19:14;23.10;1.00
14401;DHT22;7285;50.894;5.462;2022-10-28T10:21:45;23.30;1.00
14401;DHT22;7285;50.894;5.462;2022-10-28T10:24:30;23.50;1.00
14401;DHT22;7285;50.894;5.462;2022-10-28T10:26:59;23.30;1.00
14401;DHT22;7285;50.894;5.462;2022-10-28T10:29:27;23.00;1.00
14401;DHT22;7285;50.894;5.462;2022-10-28T10:32:07;23.00;1.00
14401;DHT22;7285;50.894;5.462;2022-10-28T10:34:43;23.20;1.00
14401;DHT22;7285;50.894;5.462;2022-10-28T10:37:19;23.40;1.00
14401;DHT22;7285;50.894;5.462;2022-10-28T10:40:00;23.50;1.00
14401;DHT22;7285;50.894;5.462;2022-10-28T10:42:27;23.60;1.00
14401;DHT22;7285;50.894;5.462;2022-10-28T10:45:00;23.90;1.00
14401;DHT22;7285;50.894;5.462;2022-10-28T10:47:28;23.90;1.00
14401;DHT22;7285;50.894;5.462;2022-10-28T10:50:18;23.90;1.00
14401;DHT22;7285;50.894;5.462;2022-10-28T10:52:50;24.20;1.00
14401;DHT22;7285;50.894;5.462;2022-10-28T10:55:26;24.40;1.00
14401;DHT22;7285;50.894;5.462;2022-10-28T10:57:58;24.70;1.00
14401;DHT22;7285;50.894;5.462;2022-10-28T11:00:29;24.80;1.00
14401;DHT22;7285;50.894;5.462;2022-10-28T11:02:58;25.10;1.00
14401;DHT22;7285;50.894;5.462;2022-10-28T11:05:27;25.10;1.00
14401;DHT22;7285;50.894;5.462;2022-10-28T11:07:56;25.10;1.00
14401;DHT22;7285;50.894;5.462;2022-10-28T11:10:25;24.90;1.00
14401;DHT22;7285;50.894;5.462;2022-10-28T11:12:54;25.40;1.00
14401;DHT22;7285;50.894;5.462;2022-10-28T11:15:25;25.50;1.00
14401;DHT22;7285;50.894;5.462;2022-10-28T11:17:54;25.80;1.00
14401;DHT22;7285;50.894;5.462;2022-10-28T11:20:23;25.40;1.00
14401;DHT22;7285;50.894;5.462;2022-10-28T11:23:00;25.30;1.00
14401;DHT22;7285;50.894;5.462;2022-10-28T11:25:35;25.30;1.00
14401;DHT22;7285;50.894;5.462;2022-10-28T11:28:16;25.10;1.00
14401;DHT22;7285;50.894;5.462;2022-10-28T11:30:56;25.00;1.00
14401;DHT22;7285;50.894;5.462;2022-10-28T11:33:31;24.50;1.00
14401;DHT22;7285;50.894;5.462;2022-10-28T11:36:14;24.50;99.90
14401;DHT22;7285;50.894;5.462;2022-10-28T11:38:58;24.40;1.00
14401;DHT22;7285;50.894;5.462;2022-10-28T11:41:34;24.40;1.00
14401;DHT22;7285;50.894;5.462;2022-10-28T11:44:06;24.30;1.00
14401;DHT22;7285;50.894;5.462;2022-10-28T11:46:44;24.20;1.00
14401;DHT22;7285;50.894;5.462;2022-10-28T11:49:36;24.20;1.00
14401;DHT22;7285;50.894;5.462;2022-10-28T11:52:16;24.70;1.00
14401;DHT22;7285;50.894;5.462;2022-10-28T11:54:56;24.60;1.00
14401;DHT22;7285;50.894;5.462;2022-10-28T11:57:35;24.70;99.90
14401;DHT22;7285;50.894;5.462;2022-10-28T12:00:19;24.70;1.00
14401;DHT22;7285;50.894;5.462;2022-10-28T12:02:58;24.70;77.40
14401;DHT22;7285;50.894;5.462;2022-10-28T12:05:33;25.00;1.00
14401;DHT22;7285;50.894;5.462;2022-10-28T12:08:16;24.90;1.00
14401;DHT22;7285;50.894;5.462;2022-10-28T12:10:58;24.90;1.00
14401;DHT22;7285;50.894;5.462;2022-10-28T12:13:33;25.30;1.00
14401;DHT22;7285;50.894;5.462;2022-10-28T12:16:06;25.40;1.00
14401;DHT22;7285;50.894;5.462;2022-10-28T12:18:44;25.70;1.00
14401;DHT22;7285;50.894;5.462;2022-10-28T12:21:20;25.40;99.90
14401;DHT22;7285;50.894;5.462;2022-10-28T12:23:49;25.30;1.00
14401;DHT22;7285;50.894;5.462;2022-10-28T12:26:19;25.00;1.00
14401;DHT22;7285;50.894;5.462;2022-10-28T12:28:50;24.80;1.00
14401;DHT22;7285;50.894;5.462;2022-10-28T12:31:21;24.80;1.00
14401;DHT22;7285;50.894;5.462;2022-10-28T12:33:52;24.70;1.00
14401;DHT22;7285;50.894;5.462;2022-10-28T12:36:26;24.70;1.00
14401;DHT22;7285;50.894;5.462;2022-10-28T12:38:59;24.50;1.00
14401;DHT22;7285;50.894;5.462;2022-10-28T12:41:41;24.60;1.00
14401;DHT22;7285;50.894;5.462;2022-10-28T12:44:11;24.60;1.00
14401;DHT22;7285;50.894;5.462;2022-10-28T12:46:48;24.40;1.00
14401;DHT22;7285;50.894;5.462;2022-10-28T12:49:20;24.20;1.00
14401;DHT22;7285;50.894;5.462;2022-10-28T12:51:49;24.10;1.00
14401;DHT22;7285;50.894;5.462;2022-10-28T12:54:20;23.90;99.90
14401;DHT22;7285;50.894;5.462;2022-10-28T12:56:55;23.80;99.90
14401;DHT22;7285;50.894;5.462;2022-10-28T12:59:30;23.80;99.90
14401;DHT22;7285;50.894;5.462;2022-10-28T13:01:58;23.80;99.90
14401;DHT22;7285;50.894;5.462;2022-10-28T13:04:26;23.80;99.90
14401;DHT22;7285;50.894;5.462;2022-10-28T13:07:19;23.80;99.90
14401;DHT22;7285;50.894;5.462;2022-10-28T13:10:00;23.70;99.90
14401;DHT22;7285;50.894;5.462;2022-10-28T13:12:42;23.70;99.90
14401;DHT22;7285;50.894;5.462;2022-10-28T13:15:44;23.50;1.00
14401;DHT22;7285;50.894;5.462;2022-10-28T13:18:37;23.40;1.00
14401;DHT22;7285;50.894;5.462;2022-10-28T13:21:18;23.50;1.00
14401;DHT22;7285;50.894;5.462;2022-10-28T13:23:53;23.70;1.00
14401;DHT22;7285;50.894;5.462;2022-10-28T13:26:25;23.70;1.00
14401;DHT22;7285;50.894;5.462;2022-10-28T13:28:57;23.70;1.00
14401;DHT22;7285;50.894;5.462;2022-10-28T13:31:35;23.60;1.00
14401;DHT22;7285;50.894;5.462;2022-10-28T13:34:03;23.50;1.00
14401;DHT22;7285;50.894;5.462;2022-10-28T13:36:32;23.40;1.00
14401;DHT22;7285;50.894;5.462;2022-10-28T13:39:03;23.30;99.90
14401;DHT22;7285;50.894;5.462;2022-10-28T13:41:35;23.30;1.00
14401;DHT22;7285;50.894;5.462;2022-10-28T13:44:28;23.30;99.90
14401;DHT22;7285;50.894;5.462;2022-10-28T13:50:20;23.20;99.90
14401;DHT22;7285;50.894;5.462;2022-10-28T13:55:45;23.20;99.90
14401;DHT22;7285;50.894;5.462;2022-10-28T13:58:20;23.30;99.90
14401;DHT22;7285;50.894;5.462;2022-10-28T14:00:50;23.30;1.00
14401;DHT22;7285;50.894;5.462;2022-10-28T14:03:18;23.40;1.00
14401;DHT22;7285;50.894;5.462;2022-10-28T14:05:52;23.30;1.00
14401;DHT22;7285;50.894;5.462;2022-10-28T14:08:25;23.20;1.00
14401;DHT22;7285;50.894;5.462;2022-10-28T14:11:04;23.20;1.00
14401;DHT22;7285;50.894;5.462;2022-10-28T14:13:33;23.30;1.00
14401;DHT22;7285;50.894;5.462;2022-10-28T14:16:21;23.40;1.00
14401;DHT22;7285;50.894;5.462;2022-10-28T14:18:59;23.40;1.00
14401;DHT22;7285;50.894;5.462;2022-10-28T14:21:42;23.30;1.00
14401;DHT22;7285;50.894;5.462;2022-10-28T14:24:12;23.20;1.00
14401;DHT22;7285;50.894;5.462;2022-10-28T14:30:18;23.10;1.00
14401;DHT22;7285;50.894;5.462;2022-10-28T14:36:10;22.70;99.90
14401;DHT22;7285;50.894;5.462;2022-10-28T14:39:19;22.60;99.90
14401;DHT22;7285;50.894;5.462;2022-10-28T14:42:03;22.50;99.90
14401;DHT22;7285;50.894;5.462;2022-10-28T14:44:43;22.50;99.90
14401;DHT22;7285;50.894;5.462;2022-10-28T14:47:31;22.40;1.00
14401;DHT22;7285;50.894;5.462;2022-10-28T14:50:13;22.40;1.00
14401;DHT22;7285;50.894;5.462;2022-10-28T14:52:42;22.40;99.90
14401;DHT22;7285;50.894;5.462;2022-10-28T14:55:19;22.50;99.90
14401;DHT22;7285;50.894;5.462;2022-10-28T14:57:47;22.50;99.90
14401;DHT22;7285;50.894;5.462;2022-10-28T15:00:17;22.50;99.90
14401;DHT22;7285;50.894;5.462;2022-10-28T15:02:45;22.50;99.90
14401;DHT22;7285;50.894;5.462;2022-10-28T15:05:16;22.40;99.90
14401;DHT22;7285;50.894;5.462;2022-10-28T15:07:45;22.30;99.90
14401;DHT22;7285;50.894;5.462;2022-10-28T15:10:14;22.30;99.90
14401;DHT22;7285;50.894;5.462;2022-10-28T15:12:42;22.30;99.90
14401;DHT22;7285;50.894;5.462;2022-10-28T15:15:18;22.20;99.90
14401;DHT22;7285;50.894;5.462;2022-10-28T15:17:45;22.10;99.90
14401;DHT22;7285;50.894;5.462;2022-10-28T15:20:19;22.00;99.90
14401;DHT22;7285;50.894;5.462;2022-10-28T15:22:46;21.90;99.90
14401;DHT22;7285;50.894;5.462;2022-10-28T15:25:15;21.80;99.90
14401;DHT22;7285;50.894;5.462;2022-10-28T15:27:44;21.70;99.90
14401;DHT22;7285;50.894;5.462;2022-10-28T15:30:14;21.60;99.90
14401;DHT22;7285;50.894;5.462;2022-10-28T15:32:41;21.50;99.90
14401;DHT22;7285;50.894;5.462;2022-10-28T15:35:38;21.40;99.90
14401;DHT22;7285;50.894;5.462;2022-10-28T15:38:24;21.30;99.90
14401;DHT22;7285;50.894;5.462;2022-10-28T15:40:51;21.20;1.00
14401;DHT22;7285;50.894;5.462;2022-10-28T15:43:19;21.20;1.00
14401;DHT22;7285;50.894;5.462;2022-10-28T15:45:49;21.00;1.00
14401;DHT22;7285;50.894;5.462;2022-10-28T15:48:22;21.00;1.00
14401;DHT22;7285;50.894;5.462;2022-10-28T15:51:11;20.80;1.00
14401;DHT22;7285;50.894;5.462;2022-10-28T15:53:39;20.70;1.00
14401;DHT22;7285;50.894;5.462;2022-10-28T15:56:18;20.60;1.00
14401;DHT22;7285;50.894;5.462;2022-10-28T16:01:35;20.40;1.00
14401;DHT22;7285;50.894;5.462;2022-10-28T16:04:39;20.30;1.00
14401;DHT22;7285;50.894;5.462;2022-10-28T16:07:08;20.20;99.90
14401;DHT22;7285;50.894;5.462;2022-10-28T16:09:40;20.10;99.90
14401;DHT22;7285;50.894;5.462;2022-10-28T16:12:16;20.00;1.00
14401;DHT22;7285;50.894;5.462;2022-10-28T16:14:45;19.90;1.00
14401;DHT22;7285;50.894;5.462;2022-10-28T16:17:17;19.80;1.00
14401;DHT22;7285;50.894;5.462;2022-10-28T16:19:49;19.70;1.00
14401;DHT22;7285;50.894;5.462;2022-10-28T16:22:18;19.70;1.00
14401;DHT22;7285;50.894;5.462;2022-10-28T16:24:48;19.60;1.00
14401;DHT22;7285;50.894;5.462;2022-10-28T16:27:17;19.60;99.90
14401;DHT22;7285;50.894;5.462;2022-10-28T16:29:44;19.50;1.00
14401;DHT22;7285;50.894;5.462;2022-10-28T16:32:12;19.50;1.00
14401;DHT22;7285;50.894;5.462;2022-10-28T16:34:39;19.40;1.00
14401;DHT22;7285;50.894;5.462;2022-10-28T16:37:19;19.30;1.00
14401;DHT22;7285;50.894;5.462;2022-10-28T16:39:46;19.10;1.00
14401;DHT22;7285;50.894;5.462;2022-10-28T16:42:13;19.10;1.00
14401;DHT22;7285;50.894;5.462;2022-10-28T16:44:40;18.90;1.00
14401;DHT22;7285;50.894;5.462;2022-10-28T16:47:09;18.90;1.00